createdAt,value
2023-05-15T00:02:27.857Z,3.80
2023-05-15T00:04:55.550Z,4.77
2023-05-15T00:07:23.079Z,4.43
2023-05-15T00:09:50.499Z,3.90
2023-05-15T00:12:18.542Z,4.30
2023-05-15T00:14:46.051Z,3.97
2023-05-15T00:17:13.450Z,3.80
2023-05-15T00:19:40.853Z,5.77
2023-05-15T00:22:08.722Z,4.20
2023-05-15T00:24:36.284Z,3.90
2023-05-15T00:27:04.403Z,3.60
2023-05-15T00:29:31.857Z,3.73
2023-05-15T00:31:59.248Z,5.97
2023-05-15T00:34:26.738Z,4.00
2023-05-15T00:36:54.133Z,3.70
2023-05-15T00:39:21.640Z,5.77
2023-05-15T00:41:49.846Z,3.90
2023-05-15T00:44:19.147Z,4.70
2023-05-15T00:46:47.060Z,4.33
2023-05-15T00:49:15.179Z,5.17
2023-05-15T00:51:43.174Z,8.43
2023-05-15T00:54:11.397Z,4.23
2023-05-15T00:56:39.140Z,4.30
2023-05-15T00:59:07.780Z,4.40
2023-05-15T01:01:35.626Z,4.00
2023-05-15T01:04:03.833Z,5.00
2023-05-15T01:06:32.171Z,4.80
2023-05-15T01:09:04.274Z,4.07
2023-05-15T01:11:36.303Z,4.30
2023-05-15T01:14:05.478Z,4.33
2023-05-15T01:16:34.035Z,5.80
2023-05-15T01:19:01.986Z,4.80
2023-05-15T01:21:52.234Z,4.80
2023-05-15T01:24:43.987Z,5.47
2023-05-15T01:27:43.219Z,4.63
2023-05-15T01:30:28.499Z,5.10
2023-05-15T01:33:04.180Z,5.60
2023-05-15T01:35:38.645Z,7.17
2023-05-15T01:38:09.125Z,6.30
2023-05-15T01:40:36.583Z,6.53
2023-05-15T01:43:09.845Z,6.27
2023-05-15T01:45:39.747Z,5.80
2023-05-15T01:48:08.771Z,5.53
2023-05-15T01:50:38.926Z,6.13
2023-05-15T01:53:11.317Z,5.40
2023-05-15T01:55:42.017Z,6.17
2023-05-15T01:58:09.981Z,6.03
2023-05-15T02:00:38.563Z,5.63
2023-05-15T02:03:06.950Z,7.20
2023-05-15T02:05:35.709Z,7.03
2023-05-15T02:08:04.489Z,6.13
2023-05-15T02:10:33.671Z,6.23
2023-05-15T02:13:02.094Z,7.20
2023-05-15T02:15:30.242Z,6.97
2023-05-15T02:17:57.795Z,6.60
2023-05-15T02:20:25.234Z,7.10
2023-05-15T02:22:52.622Z,7.30
2023-05-15T02:25:41.277Z,7.33
2023-05-15T02:28:17.354Z,8.33
2023-05-15T02:30:58.009Z,7.90
2023-05-15T02:33:47.010Z,8.67
2023-05-15T02:36:20.468Z,9.00
2023-05-15T02:38:50.978Z,8.33
2023-05-15T02:41:19.323Z,8.37
2023-05-15T02:43:49.004Z,9.53
2023-05-15T02:46:17.942Z,9.23
2023-05-15T02:48:47.148Z,10.40
2023-05-15T02:51:14.754Z,9.70
2023-05-15T02:53:42.981Z,10.43
2023-05-15T02:56:10.507Z,10.40
2023-05-15T02:58:39.564Z,13.70
2023-05-15T03:01:07.020Z,10.27
2023-05-15T03:03:34.575Z,10.50
2023-05-15T03:06:01.979Z,11.23
2023-05-15T03:08:29.501Z,11.20
2023-05-15T03:10:56.917Z,11.53
2023-05-15T03:13:24.243Z,11.30
2023-05-15T03:15:52.888Z,12.00
2023-05-15T03:18:20.476Z,12.00
2023-05-15T03:20:49.232Z,11.70
2023-05-15T03:23:16.688Z,12.30
2023-05-15T03:25:44.274Z,11.10
2023-05-15T03:28:11.715Z,11.20
2023-05-15T03:30:39.146Z,9.10
2023-05-15T03:33:06.824Z,10.43
2023-05-15T03:35:34.231Z,8.87
2023-05-15T03:38:01.767Z,8.83
2023-05-15T03:40:29.146Z,11.40
2023-05-15T03:42:56.589Z,10.23
2023-05-15T03:45:24.195Z,10.23
2023-05-15T03:47:51.779Z,10.47
2023-05-15T03:50:19.168Z,9.47
2023-05-15T03:52:47.033Z,9.77
2023-05-15T03:55:14.757Z,10.50
2023-05-15T03:57:42.283Z,9.93
2023-05-15T04:00:11.166Z,10.50
2023-05-15T04:02:39.437Z,11.33
2023-05-15T04:05:07.817Z,10.97
2023-05-15T04:07:35.975Z,11.93
2023-05-15T04:10:04.163Z,12.73
2023-05-15T04:12:35.583Z,12.60
2023-05-15T04:15:23.881Z,14.07
2023-05-15T04:17:54.709Z,12.97
2023-05-15T04:20:25.960Z,12.87
2023-05-15T04:23:02.734Z,13.23
2023-05-15T04:25:31.000Z,14.10
2023-05-15T04:27:58.718Z,14.43
2023-05-15T04:30:26.824Z,14.33
2023-05-15T04:32:54.626Z,15.17
2023-05-15T04:35:29.399Z,14.07
2023-05-15T04:37:57.442Z,14.10
2023-05-15T04:40:25.819Z,14.03
2023-05-15T04:42:53.289Z,15.07
2023-05-15T04:45:20.908Z,14.97
2023-05-15T04:47:48.401Z,14.73
2023-05-15T04:50:16.233Z,15.30
2023-05-15T04:52:43.978Z,15.63
2023-05-15T04:55:14.333Z,15.70
2023-05-15T04:57:41.964Z,17.23
2023-05-15T05:00:12.721Z,16.13
2023-05-15T05:02:40.489Z,17.57
2023-05-15T05:05:09.755Z,16.33
2023-05-15T05:07:37.576Z,16.90
2023-05-15T05:10:06.449Z,17.70
2023-05-15T05:12:33.871Z,17.87
2023-05-15T05:15:01.318Z,22.77
2023-05-15T05:17:31.895Z,19.33
2023-05-15T05:19:59.584Z,17.17
2023-05-15T05:22:27.102Z,19.77
2023-05-15T05:24:55.305Z,20.40
2023-05-15T05:27:23.006Z,19.60
2023-05-15T05:29:50.662Z,20.53
2023-05-15T05:32:28.577Z,19.93
2023-05-15T05:34:56.115Z,21.00
2023-05-15T05:37:23.828Z,28.53
2023-05-15T05:39:51.279Z,26.17
2023-05-15T05:42:18.739Z,24.27
2023-05-15T05:44:46.193Z,30.03
2023-05-15T05:47:15.500Z,26.33
2023-05-15T05:49:43.780Z,24.93
2023-05-15T05:52:11.245Z,20.63
2023-05-15T05:54:38.692Z,20.30
2023-05-15T05:57:07.741Z,21.67
2023-05-15T05:59:35.904Z,25.80
2023-05-15T06:02:03.887Z,26.73
2023-05-15T06:04:33.479Z,33.53
2023-05-15T06:07:01.394Z,33.20
2023-05-15T06:09:29.317Z,30.57
2023-05-15T06:11:56.971Z,34.30
2023-05-15T06:14:24.463Z,36.90
2023-05-15T06:16:52.983Z,36.67
2023-05-15T06:19:21.814Z,41.83
2023-05-15T06:21:49.373Z,40.23
2023-05-15T06:24:17.020Z,36.33
2023-05-15T06:26:44.813Z,38.93
2023-05-15T06:29:12.284Z,38.37
2023-05-15T06:31:39.868Z,39.63
2023-05-15T06:34:07.378Z,42.20
2023-05-15T06:36:35.484Z,36.97
2023-05-15T06:39:05.586Z,39.67
2023-05-15T06:41:33.311Z,43.30
2023-05-15T06:44:01.455Z,41.77
2023-05-15T06:46:28.946Z,42.47
2023-05-15T06:48:56.635Z,40.80
2023-05-15T06:51:24.339Z,41.60
2023-05-15T06:53:51.768Z,43.57
2023-05-15T06:59:53.195Z,42.80
2023-05-15T07:02:44.452Z,42.20
2023-05-15T07:05:31.192Z,42.20
2023-05-15T07:08:02.951Z,41.60
2023-05-15T07:10:40.850Z,40.80
2023-05-15T07:13:24.676Z,40.13
2023-05-15T07:16:09.504Z,38.67
2023-05-15T07:18:37.676Z,37.10
2023-05-15T07:21:23.388Z,37.27
2023-05-15T07:23:51.086Z,39.80
2023-05-15T07:26:34.476Z,33.80
2023-05-15T07:29:19.475Z,35.93
2023-05-15T07:31:46.848Z,35.57
2023-05-15T07:34:14.372Z,33.33
2023-05-15T07:36:45.074Z,34.13
2023-05-15T07:39:13.259Z,35.17
2023-05-15T07:41:49.823Z,35.27
2023-05-15T07:44:19.377Z,33.63
2023-05-15T07:46:47.831Z,30.17
2023-05-15T07:49:18.489Z,34.93
2023-05-15T07:51:51.034Z,32.23
2023-05-15T07:54:21.537Z,35.33
2023-05-15T07:56:59.289Z,32.67
2023-05-15T08:00:11.621Z,33.13
2023-05-15T08:02:51.900Z,29.73
2023-05-15T08:05:19.295Z,33.07
2023-05-15T08:07:46.635Z,29.23
2023-05-15T08:10:14.005Z,31.38
2023-05-15T08:12:46.152Z,32.07
2023-05-15T08:15:14.118Z,33.33
2023-05-15T08:17:41.597Z,29.83
2023-05-15T08:20:09.630Z,32.97
2023-05-15T08:22:37.048Z,31.65
2023-05-15T08:25:05.964Z,31.38
2023-05-15T08:27:33.437Z,29.02
2023-05-15T08:30:00.850Z,30.63
2023-05-15T08:32:28.333Z,29.55
2023-05-15T08:34:55.796Z,30.52
2023-05-15T08:37:23.043Z,27.25
2023-05-15T08:39:50.414Z,26.75
2023-05-15T08:42:38.041Z,28.55
2023-05-15T08:45:07.506Z,26.10
2023-05-15T08:47:39.703Z,29.00
2023-05-15T08:50:13.932Z,30.58
2023-05-15T08:52:43.023Z,28.88
2023-05-15T08:55:11.068Z,27.63
2023-05-15T08:57:39.033Z,27.10
2023-05-15T09:00:09.191Z,23.83
2023-05-15T09:02:37.529Z,25.70
2023-05-15T09:05:06.327Z,27.05
2023-05-15T09:07:34.669Z,26.05
2023-05-15T09:10:03.578Z,27.10
2023-05-15T09:12:34.425Z,24.58
2023-05-15T09:15:31.049Z,26.73
2023-05-15T09:17:59.144Z,25.33
2023-05-15T09:20:27.912Z,25.08
2023-05-15T09:22:59.331Z,25.02
2023-05-15T09:25:38.249Z,25.13
2023-05-15T09:28:07.480Z,23.48
2023-05-15T09:30:38.170Z,26.63
2023-05-15T09:33:05.775Z,23.80
2023-05-15T09:35:37.937Z,25.52
2023-05-15T09:38:10.384Z,25.02
2023-05-15T09:40:39.194Z,24.50
2023-05-15T09:43:06.564Z,26.50
2023-05-15T09:45:33.908Z,24.65
2023-05-15T09:48:05.406Z,27.90
2023-05-15T09:50:38.028Z,24.77
2023-05-15T09:53:05.962Z,23.60
2023-05-15T09:55:34.949Z,23.25
2023-05-15T09:58:09.758Z,23.63
2023-05-15T10:00:47.622Z,23.05
2023-05-15T10:03:19.624Z,22.25
2023-05-15T10:05:47.319Z,21.30
2023-05-15T10:08:15.664Z,22.50
2023-05-15T10:10:43.690Z,25.38
2023-05-15T10:13:11.943Z,21.90
2023-05-15T10:15:40.027Z,23.05
2023-05-15T10:18:08.401Z,22.38
2023-05-15T10:20:36.859Z,21.30
2023-05-15T10:23:06.307Z,22.58
2023-05-15T10:25:50.425Z,20.02
2023-05-15T10:28:18.875Z,20.60
2023-05-15T10:30:46.722Z,22.00
2023-05-15T10:33:15.365Z,22.20
2023-05-15T10:35:43.173Z,21.88
2023-05-15T10:38:12.538Z,22.98
2023-05-15T10:40:41.823Z,22.27
2023-05-15T10:43:12.048Z,22.30
2023-05-15T10:45:39.828Z,21.15
2023-05-15T10:48:09.167Z,22.17
2023-05-15T10:50:39.523Z,23.73
2023-05-15T10:53:09.041Z,22.42
2023-05-15T10:55:37.037Z,19.95
2023-05-15T10:58:10.105Z,20.90
2023-05-15T11:00:46.265Z,20.83
2023-05-15T11:03:14.836Z,21.27
2023-05-15T11:06:09.189Z,21.15
2023-05-15T11:08:38.907Z,21.63
2023-05-15T11:11:06.644Z,19.50
2023-05-15T11:14:04.642Z,20.17
2023-05-15T11:16:53.868Z,17.92
2023-05-15T11:19:33.191Z,17.70
2023-05-15T11:22:17.348Z,17.85
2023-05-15T11:25:06.071Z,17.10
2023-05-15T11:27:41.966Z,16.05
2023-05-15T11:30:20.808Z,17.37
2023-05-15T11:32:59.252Z,16.23
2023-05-15T11:35:33.733Z,15.05
2023-05-15T11:38:10.242Z,15.13
2023-05-15T11:40:49.737Z,16.05
2023-05-15T11:43:31.936Z,14.55
2023-05-15T11:46:10.180Z,15.23
2023-05-15T11:48:44.429Z,14.18
2023-05-15T11:51:19.790Z,13.38
2023-05-15T11:53:49.257Z,13.65
2023-05-15T11:56:21.582Z,14.00
2023-05-15T11:58:50.550Z,13.95
2023-05-15T12:01:17.951Z,13.60
2023-05-15T12:03:48.811Z,12.75
2023-05-15T12:31:05.328Z,7.28
2023-05-15T12:33:32.906Z,8.43
2023-05-15T12:36:03.339Z,9.20
2023-05-15T12:38:31.138Z,7.97
2023-05-15T12:40:59.043Z,9.35
2023-05-15T12:43:26.837Z,7.55
2023-05-15T12:45:55.968Z,9.70
2023-05-15T12:48:23.734Z,8.82
2023-05-15T12:50:51.510Z,9.07
2023-05-15T12:53:21.979Z,7.95
2023-05-15T12:55:50.732Z,13.48
2023-05-15T12:58:23.481Z,7.75
2023-05-15T13:00:53.603Z,8.90
2023-05-15T13:03:22.084Z,7.70
2023-05-15T13:05:49.468Z,8.75
2023-05-15T13:08:18.214Z,9.73
2023-05-15T13:10:47.391Z,8.40
2023-05-15T13:13:16.527Z,9.75
2023-05-15T13:15:45.721Z,9.00
2023-05-15T13:18:16.192Z,8.27
2023-05-15T13:20:49.427Z,10.50
2023-05-15T13:23:19.276Z,10.88
2023-05-15T13:25:49.604Z,10.63
2023-05-15T13:28:16.915Z,9.80
2023-05-15T13:30:44.423Z,8.88
2023-05-15T13:33:12.940Z,10.20
2023-05-15T13:35:43.344Z,9.52
2023-05-15T13:38:11.821Z,10.13
2023-05-15T13:40:39.597Z,7.78
2023-05-15T13:43:07.081Z,8.65
2023-05-15T13:45:35.013Z,8.88
2023-05-15T13:48:02.543Z,7.22
2023-05-15T13:50:29.993Z,7.22
2023-05-15T13:52:57.310Z,6.70
2023-05-15T13:55:27.698Z,6.80
2023-05-15T13:57:58.111Z,8.50
2023-05-15T14:00:25.785Z,6.43
2023-05-15T14:02:53.365Z,8.10
2023-05-15T14:05:20.867Z,7.35
2023-05-15T14:07:48.275Z,8.20
2023-05-15T14:10:15.977Z,9.27
2023-05-15T14:12:43.698Z,12.32
2023-05-15T14:15:12.156Z,8.52
2023-05-15T14:17:40.974Z,7.88
2023-05-15T14:20:10.740Z,11.15
2023-05-15T14:22:38.985Z,9.07
2023-05-15T14:25:15.799Z,7.47
2023-05-15T14:27:43.337Z,7.60
2023-05-15T14:30:11.382Z,6.05
2023-05-15T14:32:38.957Z,6.35
2023-05-15T14:35:09.466Z,5.65
2023-05-15T14:37:37.715Z,5.35
2023-05-15T14:40:07.183Z,5.88
2023-05-15T14:42:34.836Z,6.60
2023-05-15T14:45:02.373Z,6.30
2023-05-15T14:47:30.170Z,6.32
2023-05-15T14:49:58.692Z,6.32
2023-05-15T14:52:26.143Z,7.25
2023-05-15T14:55:07.962Z,8.02
2023-05-15T14:57:36.985Z,8.60
2023-05-15T15:00:14.400Z,7.80
2023-05-15T15:02:43.163Z,7.45
2023-05-15T15:05:10.628Z,7.93
2023-05-15T15:08:13.900Z,7.82
2023-05-15T15:10:41.471Z,7.75
2023-05-15T15:13:15.999Z,8.73
2023-05-15T15:15:43.710Z,8.48
2023-05-15T15:18:11.305Z,8.23
2023-05-15T15:20:38.886Z,8.15
2023-05-15T15:23:06.461Z,8.43
2023-05-15T15:25:34.474Z,7.18
2023-05-15T15:28:02.590Z,9.10
2023-05-15T15:30:30.186Z,9.50
2023-05-15T15:32:57.957Z,10.68
2023-05-15T15:35:25.959Z,8.60
2023-05-15T15:37:56.572Z,7.78
2023-05-15T15:40:24.637Z,7.63
2023-05-15T15:42:54.312Z,6.38
2023-05-15T15:45:21.848Z,7.95
2023-05-15T15:47:49.990Z,6.43
2023-05-15T15:50:23.517Z,7.97
2023-05-15T15:52:51.379Z,9.07
2023-05-15T15:55:19.056Z,9.55
2023-05-15T15:57:46.382Z,6.63
2023-05-15T16:00:14.393Z,6.30
2023-05-15T16:02:41.938Z,8.07
2023-05-15T16:05:09.779Z,6.88
2023-05-15T16:07:37.572Z,5.95
2023-05-15T16:10:12.620Z,8.25
2023-05-15T16:12:42.522Z,6.20
2023-05-15T16:15:21.611Z,5.63
2023-05-15T16:17:52.756Z,5.72
2023-05-15T16:20:20.841Z,5.35
2023-05-15T16:22:48.234Z,5.72
2023-05-15T16:25:15.734Z,7.55
2023-05-15T16:27:43.094Z,7.07
2023-05-15T16:30:11.580Z,7.70
2023-05-15T16:32:40.227Z,7.00
2023-05-15T16:35:08.382Z,6.60
2023-05-15T16:37:36.115Z,4.57
2023-05-15T16:40:04.272Z,5.63
2023-05-15T16:42:36.342Z,7.18
2023-05-15T16:45:05.171Z,5.78
2023-05-15T16:47:32.591Z,7.28
2023-05-15T16:50:00.013Z,10.05
2023-05-15T16:52:28.236Z,7.22
2023-05-15T16:54:55.621Z,6.43
2023-05-15T16:57:26.110Z,7.80
2023-05-15T16:59:53.481Z,6.53
2023-05-15T17:02:21.209Z,7.95
2023-05-15T17:04:48.711Z,8.55
2023-05-15T17:07:16.090Z,5.97
2023-05-15T17:09:44.635Z,8.77
2023-05-15T17:12:12.017Z,8.68
2023-05-15T17:14:39.489Z,9.15
2023-05-15T17:17:18.274Z,8.80
2023-05-15T17:19:45.870Z,6.28
2023-05-15T17:22:13.404Z,6.90
2023-05-15T17:24:50.886Z,8.25
2023-05-15T17:27:20.014Z,6.80
2023-05-15T17:29:48.063Z,6.50
2023-05-15T17:32:16.906Z,7.15
2023-05-15T17:34:45.017Z,5.25
2023-05-15T17:37:12.396Z,5.28
2023-05-15T17:39:39.853Z,7.07
2023-05-15T17:42:07.269Z,6.82
2023-05-15T17:44:34.669Z,5.88
2023-05-15T17:47:02.156Z,8.15
2023-05-15T17:49:30.251Z,6.22
2023-05-15T17:52:09.735Z,5.40
2023-05-15T17:54:38.384Z,4.97
2023-05-15T17:57:05.976Z,7.93
2023-05-15T17:59:33.623Z,7.72
2023-05-15T18:02:02.888Z,6.28
2023-05-15T18:04:30.807Z,6.50
2023-05-15T18:06:58.241Z,6.10
2023-05-15T18:09:26.447Z,8.27
2023-05-15T18:11:54.336Z,8.98
2023-05-15T18:14:21.767Z,10.75
2023-05-15T18:16:49.081Z,9.65
2023-05-15T18:19:16.683Z,13.15
2023-05-15T18:21:44.362Z,14.75
2023-05-15T18:24:11.840Z,13.80
2023-05-15T18:26:41.385Z,16.58
2023-05-15T18:29:08.925Z,15.75
2023-05-15T18:31:39.753Z,14.07
2023-05-15T18:34:07.289Z,14.20
2023-05-15T18:36:37.472Z,15.18
2023-05-15T18:39:07.644Z,19.48
2023-05-15T18:41:35.173Z,14.18
2023-05-15T18:44:02.643Z,13.88
2023-05-15T18:46:31.733Z,13.15
2023-05-15T18:48:59.714Z,17.73
2023-05-15T18:51:31.299Z,12.20
2023-05-15T18:53:58.669Z,13.05
2023-05-15T18:56:26.022Z,14.50
2023-05-15T18:58:54.688Z,14.27
2023-05-15T19:01:22.150Z,13.90
2023-05-15T19:03:49.715Z,14.60
2023-05-15T19:06:20.151Z,15.52
2023-05-15T19:08:48.486Z,16.75
2023-05-15T19:11:17.394Z,17.70
2023-05-15T19:13:44.757Z,17.63
2023-05-15T19:16:12.412Z,17.20
2023-05-15T19:18:41.810Z,17.70
2023-05-15T19:21:09.287Z,19.13
2023-05-15T19:23:36.810Z,15.40
2023-05-15T19:26:04.070Z,15.70
2023-05-15T19:28:31.574Z,14.13
2023-05-15T19:30:58.892Z,12.77
2023-05-15T19:33:26.317Z,13.63
2023-05-15T19:35:53.626Z,16.00
2023-05-15T19:38:21.076Z,12.47
2023-05-15T19:40:48.389Z,12.13
2023-05-15T19:43:15.697Z,12.10
2023-05-15T19:45:43.800Z,12.70
2023-05-15T19:48:11.749Z,15.10
2023-05-15T19:50:39.646Z,14.80
2023-05-15T19:53:07.471Z,14.70
2023-05-15T19:55:34.919Z,15.03
2023-05-15T19:58:05.145Z,18.83
2023-05-15T20:00:32.774Z,18.10
2023-05-15T20:03:00.981Z,17.43
2023-05-15T20:05:28.711Z,16.73
2023-05-15T20:07:56.059Z,18.20
2023-05-15T20:10:23.488Z,19.53
2023-05-15T20:12:50.793Z,18.83
2023-05-15T20:15:18.131Z,20.90
2023-05-15T20:17:45.666Z,22.83
2023-05-15T20:20:13.192Z,23.67
2023-05-15T20:22:44.137Z,25.40
2023-05-15T20:25:11.692Z,23.97
2023-05-15T20:27:39.034Z,25.13
2023-05-15T20:30:07.205Z,24.70
2023-05-15T20:32:34.837Z,26.53
2023-05-15T20:35:02.837Z,30.27
2023-05-15T20:37:30.298Z,28.03
2023-05-15T20:39:57.842Z,30.13
2023-05-15T20:42:26.629Z,30.50
2023-05-15T20:44:56.719Z,31.60
2023-05-15T20:47:24.243Z,33.80
2023-05-15T20:49:51.523Z,36.43
2023-05-15T20:52:20.785Z,32.50
2023-05-15T20:54:48.163Z,33.50
2023-05-15T20:57:15.912Z,33.03
2023-05-15T20:59:43.243Z,35.70
2023-05-15T21:02:14.153Z,34.50
2023-05-15T21:04:41.660Z,33.90
2023-05-15T21:07:09.038Z,34.90
2023-05-15T21:09:39.250Z,35.87
2023-05-15T21:12:06.979Z,33.93
2023-05-15T21:14:34.274Z,35.60
2023-05-15T21:17:01.645Z,36.87
2023-05-15T21:19:28.916Z,35.17
2023-05-15T21:22:00.391Z,35.73
2023-05-15T21:24:27.726Z,39.10
2023-05-15T21:26:55.011Z,39.60
2023-05-15T21:29:22.484Z,44.60
2023-05-15T21:31:49.935Z,41.40
2023-05-15T21:34:17.280Z,40.20
2023-05-15T21:36:47.123Z,37.63
2023-05-15T21:39:15.271Z,38.60
2023-05-15T21:41:42.567Z,37.97
2023-05-15T21:44:12.136Z,38.23
2023-05-15T21:46:39.539Z,36.87
2023-05-15T21:49:06.846Z,36.70
2023-05-15T21:51:34.504Z,36.43
2023-05-15T21:54:01.859Z,37.90
2023-05-15T21:56:29.192Z,34.93
2023-05-15T21:58:56.963Z,35.13
2023-05-15T22:01:24.369Z,33.70
2023-05-15T22:03:51.714Z,35.30
2023-05-15T22:06:19.012Z,35.47
2023-05-15T22:08:46.299Z,35.50
2023-05-15T22:11:14.070Z,35.50
2023-05-15T22:13:41.434Z,34.77
2023-05-15T22:16:09.525Z,31.40
2023-05-15T22:18:39.986Z,31.37
2023-05-15T22:21:07.407Z,30.47
2023-05-15T22:23:34.638Z,37.30
2023-05-15T22:26:02.177Z,31.83
2023-05-15T22:28:29.442Z,33.03
2023-05-15T22:30:56.801Z,31.53
2023-05-15T22:33:27.145Z,30.80
2023-05-15T22:35:54.453Z,30.93
2023-05-15T22:38:21.994Z,33.10
2023-05-15T22:40:52.982Z,30.23
2023-05-15T22:43:21.423Z,31.70
2023-05-15T22:45:48.791Z,32.23
2023-05-15T22:48:16.384Z,30.40
2023-05-15T22:50:47.651Z,27.10
2023-05-15T22:53:18.371Z,30.53
2023-05-15T22:55:45.921Z,30.17
2023-05-15T22:58:13.905Z,28.50
2023-05-15T23:00:41.222Z,27.00
2023-05-15T23:03:09.050Z,28.23
2023-05-15T23:05:36.446Z,25.53
2023-05-15T23:08:03.962Z,25.60
2023-05-15T23:10:31.253Z,25.70
2023-05-15T23:12:58.640Z,24.37
2023-05-15T23:15:26.074Z,25.33
2023-05-15T23:17:53.499Z,23.80
2023-05-15T23:20:21.494Z,24.67
2023-05-15T23:22:49.012Z,25.07
2023-05-15T23:25:16.353Z,22.30
2023-05-15T23:27:43.675Z,23.27
2023-05-15T23:30:11.288Z,22.33
2023-05-15T23:32:38.594Z,21.53
2023-05-15T23:35:06.347Z,20.33
2023-05-15T23:37:38.755Z,21.07
2023-05-15T23:40:07.140Z,23.10
2023-05-15T23:42:34.406Z,21.23
2023-05-15T23:45:02.284Z,24.10
2023-05-15T23:47:29.628Z,25.13
2023-05-15T23:49:56.938Z,24.83
2023-05-15T23:52:25.883Z,24.43
2023-05-15T23:54:53.252Z,22.13
2023-05-15T23:57:20.742Z,20.67
2023-05-15T23:59:47.979Z,21.90
